Time;durP1;ratioP1;P1;durP2;ratioP2;P2;SDS_P1;SDS_P2;PMS_P1;PMS_P2;Temp;Humidity;BMP_temperature;BMP_pressure;BME280_temperature;BME280_humidity;BME280_pressure;Samples;Min_cycle;Max_cycle;Signal;HPM_P1;HPM_P2
2021/08/22 00:01:22;;;;;;;14.52;13.02;;;18.50;99.90;;;;;;5103047;28;20083;-66
2021/08/22 00:03:48;;;;;;;14.60;13.30;;;18.50;99.90;;;;;;5098885;28;20067;-66
2021/08/22 00:06:14;;;;;;;16.48;14.18;;;18.50;99.90;;;;;;5100029;28;20084;-66
2021/08/22 00:08:40;;;;;;;15.27;13.80;;;18.50;99.90;;;;;;5099868;28;20043;-66
2021/08/22 00:11:07;;;;;;;13.73;12.40;;;18.50;99.90;;;;;;5100713;28;20097;-66
2021/08/22 00:13:32;;;;;;;15.50;13.93;;;18.50;99.90;;;;;;5103826;28;20051;-66
2021/08/22 00:15:59;;;;;;;14.90;13.50;;;18.50;99.90;;;;;;5100826;28;20043;-66
2021/08/22 00:18:25;;;;;;;15.23;13.73;;;18.50;99.90;;;;;;5102533;28;20039;-66
2021/08/22 00:20:52;;;;;;;14.80;13.43;;;18.40;99.90;;;;;;5099247;27;20536;-66
2021/08/22 00:23:17;;;;;;;15.93;14.32;;;18.50;99.90;;;;;;5105210;28;20052;-66
2021/08/22 00:25:43;;;;;;;15.05;13.45;;;18.40;99.90;;;;;;5101527;27;20036;-66
2021/08/22 00:28:09;;;;;;;15.32;14.00;;;18.40;99.90;;;;;;5106946;27;20042;-66
2021/08/22 00:30:34;;;;;;;16.70;15.05;;;18.40;99.90;;;;;;5098338;28;20034;-66
2021/08/22 00:33:00;;;;;;;15.25;13.77;;;18.40;99.90;;;;;;5097633;28;20130;-65
2021/08/22 00:35:27;;;;;;;17.23;15.63;;;18.40;99.90;;;;;;5096582;27;20089;-66
2021/08/22 00:37:53;;;;;;;16.85;15.25;;;18.40;99.90;;;;;;5096783;27;20036;-66
2021/08/22 00:40:19;;;;;;;17.20;15.52;;;18.50;99.90;;;;;;5098466;28;20072;-66
2021/08/22 00:42:48;;;;;;;16.25;14.85;;;18.40;99.90;;;;;;5096169;27;20161;-66
2021/08/22 00:45:15;;;;;;;17.10;15.30;;;18.40;99.90;;;;;;5094248;27;20055;-66
2021/08/22 00:47:50;;;;;;;17.33;15.50;;;18.40;99.90;;;;;;5096192;28;20044;-66
2021/08/22 00:50:17;;;;;;;17.55;15.85;;;18.40;99.90;;;;;;5099882;28;20443;-66
2021/08/22 00:52:44;;;;;;;15.95;14.55;;;18.40;99.90;;;;;;5097740;28;20050;-66
2021/08/22 00:55:10;;;;;;;16.75;15.00;;;18.30;99.90;;;;;;5096510;27;20028;-66
2021/08/22 00:57:36;;;;;;;16.70;15.00;;;18.40;99.90;;;;;;5098597;28;20032;-66
2021/08/22 01:00:06;;;;;;;16.92;15.43;;;18.40;99.90;;;;;;5097868;28;20036;-66
2021/08/22 01:02:34;;;;;;;16.75;15.25;;;18.40;99.90;;;;;;5098803;27;20070;-66
2021/08/22 01:05:17;;;;;;;16.70;15.10;;;18.40;99.90;;;;;;5097446;27;20040;-66
2021/08/22 01:07:55;;;;;;;17.27;15.70;;;18.40;99.90;;;;;;5097367;27;20381;-66
2021/08/22 01:10:25;;;;;;;16.48;14.95;;;18.30;99.90;;;;;;5110031;27;20588;-66
2021/08/22 01:13:07;;;;;;;16.95;15.35;;;18.40;99.90;;;;;;5092591;28;20040;-66
2021/08/22 01:15:39;;;;;;;17.33;15.70;;;18.30;99.90;;;;;;5099782;27;20035;-65
2021/08/22 01:18:10;;;;;;;18.55;16.65;;;18.40;99.90;;;;;;5098932;28;20397;-66
2021/08/22 01:20:58;;;;;;;19.73;16.60;;;18.40;99.90;;;;;;5095942;28;20039;-66
2021/08/22 01:23:24;;;;;;;19.95;17.63;;;18.30;99.90;;;;;;5098235;28;20036;-66
2021/08/22 01:25:52;;;;;;;19.00;17.20;;;18.40;99.90;;;;;;5093181;27;20039;-66
2021/08/22 01:28:18;;;;;;;21.85;19.65;;;18.40;99.90;;;;;;5096888;27;20081;-66
2021/08/22 01:30:48;;;;;;;21.52;18.98;;;18.40;99.90;;;;;;5097648;28;20424;-66
2021/08/22 01:33:17;;;;;;;20.73;18.63;;;18.40;99.90;;;;;;5094489;28;20615;-66
2021/08/22 01:35:45;;;;;;;24.05;18.33;;;18.40;99.90;;;;;;5095320;27;20031;-65
2021/08/22 01:38:13;;;;;;;21.90;18.98;;;18.40;99.90;;;;;;5095459;28;20156;-65
2021/08/22 01:40:41;;;;;;;22.58;19.67;;;18.30;99.90;;;;;;5098613;27;20100;-65
2021/08/22 01:43:07;;;;;;;24.58;21.48;;;18.30;99.90;;;;;;5098243;28;20052;-65
2021/08/22 01:45:34;;;;;;;22.13;19.83;;;18.30;99.90;;;;;;5093297;27;20035;-65
2021/08/22 01:48:00;;;;;;;25.02;22.10;;;18.30;99.90;;;;;;5095664;28;20069;-64
2021/08/22 01:50:27;;;;;;;23.63;21.23;;;18.20;99.90;;;;;;5096264;28;20047;-65
2021/08/22 01:52:56;;;;;;;23.77;21.23;;;18.20;99.90;;;;;;5098932;28;20102;-65
2021/08/22 01:55:21;;;;;;;21.90;19.52;;;18.20;99.90;;;;;;5096465;27;20063;-65
2021/08/22 01:57:47;;;;;;;25.60;22.88;;;18.10;99.90;;;;;;5096616;28;20113;-65
2021/08/22 02:00:14;;;;;;;23.75;21.25;;;18.00;99.90;;;;;;5096687;28;20453;-65
2021/08/22 02:02:59;;;;;;;25.15;22.55;;;18.00;99.90;;;;;;5097898;27;20039;-65
2021/08/22 02:05:27;;;;;;;26.38;23.20;;;18.00;99.90;;;;;;5094616;28;20173;-65
2021/08/22 02:07:53;;;;;;;30.85;26.88;;;18.00;99.90;;;;;;5099928;28;20085;-65
2021/08/22 02:10:29;;;;;;;21.65;19.58;;;17.90;99.90;;;;;;5095448;28;20035;-65
2021/08/22 02:12:59;;;;;;;22.95;20.40;;;17.90;99.90;;;;;;5097939;28;20044;-65
2021/08/22 02:15:32;;;;;;;20.83;18.83;;;17.80;99.90;;;;;;5095495;27;20046;-65
2021/08/22 02:18:04;;;;;;;22.75;20.58;;;17.80;99.90;;;;;;5095854;27;20047;-65
2021/08/22 02:20:32;;;;;;;21.15;19.00;;;17.90;99.90;;;;;;5094797;27;20438;-65
2021/08/22 02:22:58;;;;;;;27.85;19.23;;;17.80;99.90;;;;;;5094836;28;20074;-65
2021/08/22 02:25:29;;;;;;;22.80;20.38;;;17.80;99.90;;;;;;5096460;27;20036;-65
2021/08/22 02:27:56;;;;;;;23.23;20.85;;;17.80;99.90;;;;;;5094724;28;20076;-65
2021/08/22 02:30:22;;;;;;;23.33;21.08;;;17.80;99.90;;;;;;5112005;27;20032;-65
2021/08/22 02:32:48;;;;;;;23.88;20.85;;;17.80;99.90;;;;;;5103542;28;20093;-65
2021/08/22 02:35:15;;;;;;;19.42;17.42;;;17.80;99.90;;;;;;5106321;27;20043;-65
2021/08/22 02:37:41;;;;;;;20.73;18.73;;;17.80;99.90;;;;;;5103210;28;20183;-65
2021/08/22 02:40:07;;;;;;;24.35;21.83;;;17.80;99.90;;;;;;5099985;28;20040;-65
2021/08/22 02:42:33;;;;;;;22.38;20.05;;;17.80;99.90;;;;;;5134937;27;20035;-65
2021/08/22 02:44:59;;;;;;;26.92;24.10;;;17.70;99.90;;;;;;5106375;28;20043;-65
2021/08/22 02:47:24;;;;;;;23.67;21.30;;;17.70;99.90;;;;;;5107250;28;20055;-65
2021/08/22 02:49:50;;;;;;;37.25;28.58;;;17.60;99.90;;;;;;5097074;28;20156;-65
2021/08/22 02:52:16;;;;;;;23.25;21.05;;;17.60;99.90;;;;;;5098476;28;20038;-65
2021/08/22 02:54:42;;;;;;;24.80;22.15;;;17.60;99.90;;;;;;5093892;28;20052;-65
2021/08/22 02:57:07;;;;;;;30.20;25.40;;;17.60;99.90;;;;;;5105791;28;20558;-65
2021/08/22 02:59:33;;;;;;;24.13;21.73;;;17.60;99.90;;;;;;5103596;27;20073;-65
2021/08/22 03:01:59;;;;;;;25.50;22.20;;;17.50;99.90;;;;;;5100817;27;20040;-65
2021/08/22 03:04:25;;;;;;;22.98;20.85;;;17.60;99.90;;;;;;5101945;27;20068;-65
2021/08/22 03:07:03;;;;;;;26.88;23.75;;;17.60;99.90;;;;;;5097454;28;20036;-65
2021/08/22 03:09:29;;;;;;;31.35;25.67;;;17.60;99.90;;;;;;5102414;27;20046;-65
2021/08/22 03:11:55;;;;;;;23.52;21.17;;;17.60;99.90;;;;;;5100800;28;20032;-65
2021/08/22 03:14:20;;;;;;;23.13;20.80;;;17.50;99.90;;;;;;5102220;28;20032;-65
2021/08/22 03:16:46;;;;;;;23.48;21.20;;;17.60;99.90;;;;;;5099903;28;20042;-65
2021/08/22 03:19:12;;;;;;;23.80;21.45;;;17.50;99.90;;;;;;5101037;27;20838;-65
2021/08/22 03:21:41;;;;;;;23.40;21.10;;;17.50;99.90;;;;;;5101978;28;20603;-65
2021/08/22 03:24:08;;;;;;;25.35;22.77;;;17.50;99.90;;;;;;5100755;28;20044;-65
2021/08/22 03:26:34;;;;;;;23.08;20.83;;;17.60;99.90;;;;;;5101825;28;20178;-65
2021/08/22 03:28:59;;;;;;;23.83;21.63;;;17.60;99.90;;;;;;5102561;27;20036;-65
2021/08/22 03:31:25;;;;;;;26.23;23.63;;;17.50;99.90;;;;;;5098681;27;20101;-65
2021/08/22 03:33:51;;;;;;;23.13;20.63;;;17.60;99.90;;;;;;5100738;28;20047;-65
2021/08/22 03:36:18;;;;;;;26.27;23.48;;;17.60;99.90;;;;;;5098737;28;20059;-65
2021/08/22 03:38:45;;;;;;;33.75;26.60;;;17.60;99.90;;;;;;5100759;28;20042;-65
2021/08/22 03:41:10;;;;;;;30.00;26.77;;;17.60;99.90;;;;;;5101269;28;20799;-65
2021/08/22 03:43:36;;;;;;;28.00;24.88;;;17.60;99.90;;;;;;5099486;28;20159;-65
2021/08/22 03:46:02;;;;;;;26.80;23.08;;;17.50;99.90;;;;;;5100151;28;20035;-65
2021/08/22 03:48:27;;;;;;;25.15;22.55;;;17.50;99.90;;;;;;5098925;28;20039;-65
2021/08/22 03:50:53;;;;;;;27.00;23.90;;;17.60;99.90;;;;;;5099069;28;20043;-65
2021/08/22 03:53:19;;;;;;;22.98;20.92;;;17.60;99.90;;;;;;5101885;28;20044;-65
2021/08/22 03:55:45;;;;;;;32.30;27.75;;;17.60;99.90;;;;;;5105321;28;20031;-65
2021/08/22 03:58:11;;;;;;;25.27;22.73;;;17.50;99.90;;;;;;5109600;27;20039;-65
2021/08/22 04:00:37;;;;;;;25.48;22.85;;;17.60;99.90;;;;;;5105070;27;20036;-65
2021/08/22 04:03:03;;;;;;;26.80;24.20;;;17.50;99.90;;;;;;5106476;27;20043;-65
2021/08/22 04:05:28;;;;;;;27.33;24.40;;;17.60;99.90;;;;;;5105110;27;20040;-65
2021/08/22 04:07:55;;;;;;;26.65;24.05;;;17.50;99.90;;;;;;5108330;27;20032;-65
2021/08/22 04:10:21;;;;;;;27.00;24.17;;;17.60;99.90;;;;;;5108995;27;20118;-65
2021/08/22 04:12:47;;;;;;;28.40;25.65;;;17.60;99.90;;;;;;5108950;28;20036;-65
2021/08/22 04:15:13;;;;;;;28.60;25.52;;;17.60;99.90;;;;;;5109630;27;20565;-65
2021/08/22 04:17:39;;;;;;;30.13;26.90;;;17.60;99.90;;;;;;5108681;27;20040;-65
2021/08/22 04:20:05;;;;;;;31.60;27.10;;;17.60;99.90;;;;;;5105547;27;20043;-65
2021/08/22 04:22:31;;;;;;;27.80;24.85;;;17.60;99.90;;;;;;5106984;28;20063;-65
2021/08/22 04:24:57;;;;;;;25.92;23.27;;;17.50;99.90;;;;;;5108495;27;20035;-65
2021/08/22 04:27:23;;;;;;;25.83;23.08;;;17.60;99.90;;;;;;5107237;27;20045;-65
2021/08/22 04:29:49;;;;;;;32.63;28.40;;;17.50;99.90;;;;;;5112420;27;20474;-65
2021/08/22 04:32:14;;;;;;;37.85;31.35;;;17.60;99.90;;;;;;5104212;27;20382;-65
2021/08/22 04:34:41;;;;;;;41.35;32.90;;;17.60;99.90;;;;;;5109948;27;20046;-65
2021/08/22 04:37:07;;;;;;;31.58;28.15;;;17.50;99.90;;;;;;5104155;27;20036;-65
2021/08/22 04:39:32;;;;;;;26.55;23.80;;;17.50;99.90;;;;;;5108326;27;20062;-65
2021/08/22 04:41:58;;;;;;;30.67;27.42;;;17.50;99.90;;;;;;5109084;28;20031;-65
2021/08/22 04:44:24;;;;;;;27.83;24.35;;;17.50;99.90;;;;;;5108579;27;20044;-65
2021/08/22 04:46:49;;;;;;;26.73;24.13;;;17.50;99.90;;;;;;5106856;27;20040;-65
2021/08/22 04:49:15;;;;;;;26.83;24.13;;;17.50;99.90;;;;;;5107194;27;20031;-65
2021/08/22 04:51:41;;;;;;;26.65;24.17;;;17.50;99.90;;;;;;5102645;27;20031;-65
2021/08/22 04:54:06;;;;;;;29.33;26.33;;;17.50;99.90;;;;;;5099961;28;20068;-65
2021/08/22 04:56:32;;;;;;;28.48;25.73;;;17.50;99.90;;;;;;5097882;27;20093;-65
2021/08/22 04:58:58;;;;;;;26.23;23.60;;;17.60;99.90;;;;;;5102383;28;20450;-65
2021/08/22 05:01:24;;;;;;;25.60;23.20;;;17.60;99.90;;;;;;5098887;27;20047;-65
2021/08/22 05:03:49;;;;;;;26.38;23.67;;;17.50;99.90;;;;;;5100264;27;20082;-65
2021/08/22 05:06:15;;;;;;;26.48;24.00;;;17.60;99.90;;;;;;5098017;27;20036;-65
2021/08/22 05:08:40;;;;;;;27.00;24.35;;;17.60;99.90;;;;;;5099083;27;20163;-65
2021/08/22 05:11:06;;;;;;;33.00;29.50;;;17.60;99.90;;;;;;5096214;28;20047;-65
2021/08/22 05:13:37;;;;;;;28.20;25.35;;;17.60;99.90;;;;;;5101575;28;20093;-65
2021/08/22 05:16:04;;;;;;;27.17;24.67;;;17.60;99.90;;;;;;5096797;28;20063;-65
2021/08/22 05:18:30;;;;;;;29.17;26.27;;;17.60;99.90;;;;;;5097785;28;20038;-65
2021/08/22 05:20:56;;;;;;;31.45;28.25;;;17.60;99.90;;;;;;5097192;27;20043;-65
2021/08/22 05:23:21;;;;;;;27.83;25.10;;;17.60;99.90;;;;;;5095337;28;20557;-65
2021/08/22 05:25:47;;;;;;;27.67;24.98;;;17.60;99.90;;;;;;5098806;28;20043;-65
2021/08/22 05:28:13;;;;;;;36.35;31.65;;;17.60;99.90;;;;;;5097544;27;20126;-65
2021/08/22 05:30:39;;;;;;;29.50;26.33;;;17.60;99.90;;;;;;5096387;28;20602;-65
2021/08/22 05:33:04;;;;;;;29.15;26.27;;;17.60;99.90;;;;;;5095854;28;20044;-65
2021/08/22 05:35:31;;;;;;;35.85;31.65;;;17.60;99.90;;;;;;5098791;27;20063;-65
2021/08/22 05:37:57;;;;;;;32.08;28.83;;;17.50;99.90;;;;;;5094946;28;20042;-65
2021/08/22 05:40:23;;;;;;;29.02;26.20;;;17.50;99.90;;;;;;5093020;28;20087;-65
2021/08/22 05:42:49;;;;;;;38.40;33.10;;;17.50;99.90;;;;;;5097990;28;20070;-65
2021/08/22 05:45:15;;;;;;;35.80;30.52;;;17.50;99.90;;;;;;5099044;28;20466;-65
2021/08/22 05:47:41;;;;;;;45.85;35.95;;;17.50;99.90;;;;;;5097768;27;20035;-65
2021/08/22 05:50:07;;;;;;;35.72;30.77;;;17.50;99.90;;;;;;5094692;28;20047;-65
2021/08/22 05:52:34;;;;;;;27.20;24.60;;;17.40;99.90;;;;;;5096817;27;20073;-65
2021/08/22 05:55:03;;;;;;;27.13;24.42;;;17.40;99.90;;;;;;5098039;28;20036;-65
2021/08/22 05:57:30;;;;;;;24.83;22.38;;;17.50;99.90;;;;;;5096475;27;20044;-65
2021/08/22 05:59:55;;;;;;;26.83;23.98;;;17.50;99.90;;;;;;5093572;28;20509;-65
2021/08/22 06:02:21;;;;;;;29.38;26.27;;;17.50;99.90;;;;;;5094810;27;20039;-65
2021/08/22 06:04:47;;;;;;;25.58;22.85;;;17.50;99.90;;;;;;5093176;28;20047;-65
2021/08/22 06:07:21;;;;;;;26.48;23.58;;;17.50;99.90;;;;;;5095740;28;20032;-65
2021/08/22 06:09:48;;;;;;;26.02;23.38;;;17.40;99.90;;;;;;5098902;27;20035;-65
2021/08/22 06:12:14;;;;;;;26.15;23.27;;;17.40;99.90;;;;;;5094713;27;20054;-65
2021/08/22 06:14:40;;;;;;;29.67;25.65;;;17.40;99.90;;;;;;5096815;28;20036;-65
2021/08/22 06:17:19;;;;;;;50.80;35.85;;;17.40;99.90;;;;;;5092189;28;20039;-65
2021/08/22 06:19:45;;;;;;;23.98;21.67;;;17.30;99.90;;;;;;5094478;28;20406;-65
2021/08/22 06:22:11;;;;;;;27.13;24.27;;;17.30;99.90;;;;;;5098363;27;20047;-65
2021/08/22 06:24:38;;;;;;;24.27;22.08;;;17.30;99.90;;;;;;5097127;28;20035;-65
2021/08/22 06:27:04;;;;;;;25.88;23.38;;;17.40;99.90;;;;;;5097142;28;20189;-65
2021/08/22 06:29:29;;;;;;;29.33;26.50;;;17.40;99.90;;;;;;5128181;27;20539;-65
2021/08/22 06:31:55;;;;;;;26.45;23.88;;;17.40;99.90;;;;;;5093054;28;20068;-65
2021/08/22 06:34:21;;;;;;;30.38;27.45;;;17.50;99.90;;;;;;5095787;28;20031;-65
2021/08/22 06:36:48;;;;;;;28.10;25.23;;;17.50;99.90;;;;;;5097269;28;20059;-65
2021/08/22 06:39:14;;;;;;;26.58;24.08;;;17.50;99.90;;;;;;5093983;27;20049;-65
2021/08/22 06:41:40;;;;;;;28.92;26.02;;;17.50;99.90;;;;;;5095877;27;20143;-65
2021/08/22 06:44:06;;;;;;;25.42;22.83;;;17.60;99.90;;;;;;5094796;28;20080;-65
2021/08/22 06:46:31;;;;;;;21.67;19.52;;;17.60;99.90;;;;;;5098007;28;20035;-65
2021/08/22 06:48:57;;;;;;;21.27;18.92;;;17.60;99.90;;;;;;5097953;28;20036;-65
2021/08/22 06:51:23;;;;;;;23.42;20.90;;;17.70;99.90;;;;;;5100141;28;20130;-65
2021/08/22 06:53:50;;;;;;;23.85;21.30;;;17.60;99.90;;;;;;5097229;27;20041;-65
2021/08/22 06:56:15;;;;;;;25.23;22.50;;;17.70;99.90;;;;;;5098611;27;20515;-65
2021/08/22 06:58:41;;;;;;;25.52;22.92;;;17.70;99.90;;;;;;5103654;28;20043;-65
2021/08/22 07:01:08;;;;;;;25.08;22.45;;;17.60;99.90;;;;;;5092209;28;20032;-65
2021/08/22 07:03:33;;;;;;;24.42;21.90;;;17.60;99.90;;;;;;5098225;28;20562;-65
2021/08/22 07:05:59;;;;;;;28.65;25.13;;;17.60;99.90;;;;;;5100082;28;20044;-65
2021/08/22 07:08:25;;;;;;;26.60;23.90;;;17.60;99.90;;;;;;5103861;27;20118;-65
2021/08/22 07:10:50;;;;;;;28.27;25.27;;;17.70;99.90;;;;;;5101021;28;20036;-65
2021/08/22 07:13:16;;;;;;;28.80;25.73;;;17.70;99.90;;;;;;5100121;28;20036;-65
2021/08/22 07:15:42;;;;;;;29.33;26.17;;;17.70;99.90;;;;;;5096953;28;20567;-65
2021/08/22 07:18:08;;;;;;;27.13;24.23;;;17.70;99.90;;;;;;5096351;28;20062;-65
2021/08/22 07:20:33;;;;;;;30.73;26.02;;;17.70;99.90;;;;;;5094219;28;20040;-65
2021/08/22 07:22:59;;;;;;;31.58;26.75;;;17.70;99.90;;;;;;5095588;28;20045;-65
2021/08/22 07:25:25;;;;;;;29.05;25.92;;;17.70;99.90;;;;;;5092213;28;20127;-65
2021/08/22 07:27:51;;;;;;;34.35;29.42;;;17.80;99.90;;;;;;5097122;28;20047;-65
2021/08/22 07:30:17;;;;;;;30.75;27.52;;;17.80;99.90;;;;;;5090863;28;20138;-65
2021/08/22 07:32:42;;;;;;;32.80;28.02;;;17.90;99.90;;;;;;5094864;28;20405;-65
2021/08/22 07:35:08;;;;;;;39.90;30.75;;;17.90;99.90;;;;;;5128884;27;20051;-65
2021/08/22 07:37:35;;;;;;;31.73;28.33;;;17.90;99.90;;;;;;5097017;28;20043;-65
2021/08/22 07:40:02;;;;;;;31.85;28.17;;;18.00;99.90;;;;;;5093538;28;20036;-65
2021/08/22 07:42:28;;;;;;;34.72;29.67;;;18.00;99.90;;;;;;5091828;28;20065;-65
2021/08/22 07:44:53;;;;;;;34.30;29.55;;;18.00;99.90;;;;;;5095755;28;20056;-65
2021/08/22 07:47:19;;;;;;;35.63;30.73;;;18.10;99.90;;;;;;5125450;27;20539;-65
2021/08/22 07:49:45;;;;;;;31.17;28.08;;;18.10;99.90;;;;;;5099589;28;20057;-65
2021/08/22 07:52:10;;;;;;;31.85;28.45;;;18.20;99.90;;;;;;5097510;28;20044;-65
2021/08/22 07:54:36;;;;;;;28.75;25.73;;;18.30;99.90;;;;;;5100894;28;20089;-65
2021/08/22 07:57:02;;;;;;;29.73;26.73;;;18.40;99.90;;;;;;5105059;28;20046;-65
2021/08/22 07:59:28;;;;;;;31.75;28.52;;;18.50;99.90;;;;;;5099170;28;20070;-66
2021/08/22 08:01:54;;;;;;;29.30;26.50;;;18.60;99.90;;;;;;5098051;28;20442;-66
2021/08/22 08:04:20;;;;;;;31.10;28.05;;;18.80;99.90;;;;;;5099453;28;20109;-66
2021/08/22 08:06:45;;;;;;;29.67;26.88;;;18.80;99.90;;;;;;5096100;28;20051;-66
2021/08/22 08:09:11;;;;;;;29.13;26.25;;;18.90;99.90;;;;;;5100721;28;20417;-66
2021/08/22 08:11:37;;;;;;;28.30;25.45;;;19.00;99.90;;;;;;5099156;28;20044;-66
2021/08/22 08:14:03;;;;;;;27.75;25.05;;;19.20;99.90;;;;;;5099331;28;20048;-66
2021/08/22 08:16:28;;;;;;;26.70;23.95;;;19.30;99.90;;;;;;5093676;28;20043;-66
2021/08/22 08:18:54;;;;;;;27.83;24.67;;;19.40;99.90;;;;;;5094976;28;20046;-66
2021/08/22 08:21:22;;;;;;;25.58;23.10;;;19.50;99.90;;;;;;5098018;28;20031;-66
2021/08/22 08:23:48;;;;;;;26.52;24.00;;;19.60;99.90;;;;;;5100504;28;20046;-66
2021/08/22 08:26:17;;;;;;;24.33;22.02;;;19.60;99.90;;;;;;5103028;28;20039;-66
2021/08/22 08:28:43;;;;;;;22.30;20.33;;;19.60;99.90;;;;;;5099838;28;20067;-66
2021/08/22 08:31:13;;;;;;;21.88;19.88;;;19.50;99.90;;;;;;5099977;28;20040;-66
2021/08/22 08:33:39;;;;;;;21.38;19.27;;;19.50;99.90;;;;;;5101815;28;20055;-67
2021/08/22 08:36:05;;;;;;;20.58;18.83;;;19.50;99.90;;;;;;5100078;28;20032;-67
2021/08/22 08:38:31;;;;;;;21.08;19.02;;;19.40;99.90;;;;;;5100083;28;20036;-67
2021/08/22 08:40:59;;;;;;;20.50;18.58;;;19.40;99.90;;;;;;5099723;28;20028;-67
2021/08/22 08:43:36;;;;;;;19.38;17.67;;;19.30;99.90;;;;;;5104268;27;20067;-67
2021/08/22 08:46:25;;;;;;;17.02;15.45;;;19.30;99.90;;;;;;5097490;28;20040;-67
2021/08/22 08:48:57;;;;;;;15.32;13.98;;;19.30;99.90;;;;;;5099873;28;20050;-67
2021/08/22 08:51:37;;;;;;;6.03;5.53;;;19.30;99.90;;;;;;5099761;28;20455;-67
2021/08/22 08:54:09;;;;;;;5.88;4.03;;;19.30;99.90;;;;;;5102349;28;20051;-67
2021/08/22 08:56:44;;;;;;;5.45;3.25;;;19.20;99.90;;;;;;5105631;28;20050;-67
2021/08/22 08:59:11;;;;;;;3.70;3.40;;;19.30;99.90;;;;;;5101310;28;20051;-67
2021/08/22 09:01:41;;;;;;;4.75;4.35;;;19.30;99.90;;;;;;5101324;28;20488;-67
2021/08/22 09:04:26;;;;;;;4.30;4.00;;;19.50;99.90;;;;;;5100088;28;20039;-67
2021/08/22 09:07:47;;;;;;;4.97;4.50;;;19.70;99.90;;;;;;5106126;27;20042;-67
2021/08/22 09:10:38;;;;;;;3.90;3.60;;;19.90;99.90;;;;;;5098463;28;20143;-67
2021/08/22 09:13:42;;;;;;;3.03;2.75;;;20.00;99.90;;;;;;5106247;27;20047;-67
2021/08/22 09:16:32;;;;;;;1.70;1.60;;;20.10;99.90;;;;;;5106612;28;20059;-67
2021/08/22 09:19:37;;;;;;;1.35;1.15;;;20.30;99.90;;;;;;5104651;28;20089;-67
2021/08/22 09:22:45;;;;;;;3.55;1.38;;;20.50;99.90;;;;;;5103904;28;20041;-67
2021/08/22 09:25:48;;;;;;;1.67;1.45;;;20.50;99.90;;;;;;5137520;27;20047;-67
2021/08/22 09:28:42;;;;;;;2.20;2.00;;;20.40;99.90;;;;;;5103915;28;20040;-67
2021/08/22 09:31:45;;;;;;;2.17;2.00;;;20.40;99.90;;;;;;5104820;28;20063;-67
2021/08/22 09:34:41;;;;;;;2.85;2.25;;;20.40;99.90;;;;;;5099612;28;20042;-67
2021/08/22 09:37:07;;;;;;;;;;;20.70;99.90;;;;;;5107433;28;20406;-67
2021/08/22 09:40:16;;;;;;;3.92;3.63;;;20.80;99.90;;;;;;5101666;28;19919;-67
2021/08/22 09:43:11;;;;;;;6.57;4.70;;;20.80;99.90;;;;;;5098838;28;20066;-67
2021/08/22 09:46:14;;;;;;;7.05;6.38;;;20.60;99.90;;;;;;5103882;28;20042;-67
2021/08/22 09:48:59;;;;;;;6.93;6.32;;;20.60;99.90;;;;;;5101747;28;20127;-67
2021/08/22 09:51:47;;;;;;;7.20;6.50;;;20.50;99.90;;;;;;5102831;28;20057;-67
2021/08/22 09:54:34;;;;;;;8.10;7.18;;;20.40;99.90;;;;;;5098281;28;20424;-67
2021/08/22 09:57:35;;;;;;;6.90;6.30;;;20.40;99.90;;;;;;5101399;28;20035;-67
2021/08/22 10:00:26;;;;;;;5.22;4.80;;;20.40;99.90;;;;;;5095668;27;20086;-67
2021/08/22 10:02:55;;;;;;;5.22;4.72;;;20.50;99.90;;;;;;5102444;28;20043;-67
2021/08/22 10:05:48;;;;;;;4.90;4.50;;;20.60;99.90;;;;;;5099299;28;20047;-67
2021/08/22 10:08:39;;;;;;;4.75;4.03;;;20.60;99.90;;;;;;5100596;28;20383;-67
2021/08/22 10:11:14;;;;;;;3.83;3.53;;;20.60;99.90;;;;;;5072016;28;20052;-67
2021/08/22 10:13:40;;;;;;;4.07;3.42;;;21.00;99.90;;;;;;5101514;28;20035;-67
2021/08/22 10:16:06;;;;;;;2.92;2.63;;;21.40;99.90;;;;;;5101705;28;20040;-67
2021/08/22 10:18:31;;;;;;;3.45;3.15;;;21.70;99.90;;;;;;5100136;28;20504;-67
2021/08/22 10:21:02;;;;;;;3.08;2.80;;;22.10;99.90;;;;;;5099190;27;20397;-67
2021/08/22 10:23:38;;;;;;;2.92;2.72;;;22.40;99.90;;;;;;5102337;28;20032;-67
2021/08/22 10:26:04;;;;;;;2.65;2.17;;;22.60;99.90;;;;;;5103012;28;20043;-67
2021/08/22 10:28:45;;;;;;;3.33;2.75;;;22.50;99.90;;;;;;5103627;28;20074;-67
2021/08/22 10:31:48;;;;;;;3.53;2.35;;;22.40;99.90;;;;;;5098007;28;20044;-67
2021/08/22 10:34:14;;;;;;;3.00;2.55;;;22.20;99.90;;;;;;5101882;28;20035;-67
2021/08/22 10:36:40;;;;;;;3.10;2.72;;;21.90;99.90;;;;;;5097832;28;20032;-67
2021/08/22 10:39:22;;;;;;;2.30;2.10;;;21.80;99.90;;;;;;5102705;28;20036;-67
2021/08/22 10:41:49;;;;;;;3.85;2.15;;;21.70;99.90;;;;;;5102031;28;20031;-67
2021/08/22 10:44:33;;;;;;;4.32;2.40;;;21.50;99.90;;;;;;5100176;28;20050;-67
2021/08/22 10:47:00;;;;;;;2.90;2.35;;;21.30;99.90;;;;;;5099917;28;20043;-67
2021/08/22 10:49:50;;;;;;;4.80;1.95;;;21.20;99.90;;;;;;5096752;28;20040;-67
2021/08/22 10:52:33;;;;;;;2.03;1.75;;;21.10;99.90;;;;;;5090050;28;20069;-67
2021/08/22 10:55:14;;;;;;;1.80;1.60;;;21.00;99.90;;;;;;5097206;27;20063;-67
2021/08/22 10:57:42;;;;;;;1.50;1.40;;;20.90;99.90;;;;;;5099948;28;20035;-67
2021/08/22 11:00:35;;;;;;;3.47;2.35;;;20.80;99.90;;;;;;5097176;27;20048;-67
2021/08/22 11:03:19;;;;;;;2.55;1.75;;;20.80;99.90;;;;;;5096219;28;20538;-67
2021/08/22 11:05:46;;;;;;;1.92;1.63;;;20.80;99.90;;;;;;5095878;27;20096;-67
2021/08/22 11:08:20;;;;;;;2.10;1.83;;;20.80;99.90;;;;;;5097078;28;20042;-67
2021/08/22 11:11:01;;;;;;;2.17;1.77;;;20.80;99.90;;;;;;5098174;27;20439;-67
2021/08/22 11:13:50;;;;;;;3.33;2.03;;;20.80;99.90;;;;;;5096849;28;20044;-67
2021/08/22 11:16:16;;;;;;;1.10;1.00;;;20.80;99.90;;;;;;5098661;28;20035;-67
2021/08/22 11:18:46;;;;;;;1.60;1.40;;;20.80;99.90;;;;;;5097424;28;20132;-67
2021/08/22 11:21:12;;;;;;;1.27;0.75;;;20.70;99.90;;;;;;5092576;27;20091;-69
2021/08/22 11:23:38;;;;;;;1.05;0.95;;;20.70;99.90;;;;;;5096894;28;20047;-67
2021/08/22 11:26:09;;;;;;;1.23;0.70;;;20.60;99.90;;;;;;5100303;27;20061;-67
2021/08/22 11:28:35;;;;;;;1.95;0.98;;;20.60;99.90;;;;;;5100484;28;20036;-67
2021/08/22 11:31:13;;;;;;;1.35;0.90;;;20.60;99.90;;;;;;5098703;27;20052;-69
2021/08/22 11:33:39;;;;;;;2.63;1.30;;;20.50;99.90;;;;;;5092151;28;20044;-67
2021/08/22 11:36:05;;;;;;;3.92;1.20;;;20.50;99.90;;;;;;5096657;27;20421;-67
2021/08/22 11:38:31;;;;;;;1.60;1.50;;;20.60;99.90;;;;;;5104147;27;20028;-67
2021/08/22 11:41:04;;;;;;;2.30;1.95;;;20.70;99.90;;;;;;5094281;27;20047;-67
2021/08/22 11:43:31;;;;;;;2.42;1.83;;;20.80;99.90;;;;;;5097752;28;20050;-67
2021/08/22 11:45:57;;;;;;;3.28;2.30;;;20.80;99.90;;;;;;5097006;27;20093;-67
2021/08/22 11:48:27;;;;;;;2.53;1.80;;;20.90;99.90;;;;;;5099050;28;20048;-67
2021/08/22 11:51:01;;;;;;;3.75;1.75;;;20.90;99.90;;;;;;5097040;27;20067;-67
2021/08/22 11:53:31;;;;;;;2.33;1.77;;;20.90;99.90;;;;;;5098999;28;20119;-67
2021/08/22 11:55:57;;;;;;;2.65;1.60;;;20.90;99.90;;;;;;5092320;27;20054;-66
2021/08/22 11:58:23;;;;;;;1.60;1.48;;;20.90;99.90;;;;;;5102141;28;20435;-67
2021/08/22 12:01:12;;;;;;;1.55;1.45;;;20.90;99.90;;;;;;5099091;27;20089;-67
2021/08/22 12:04:17;;;;;;;2.10;1.90;;;20.90;99.90;;;;;;5097634;28;20052;-67
2021/08/22 12:06:43;;;;;;;2.85;1.63;;;20.80;99.90;;;;;;5089349;28;20050;-67
2021/08/22 12:09:18;;;;;;;2.60;2.00;;;20.80;99.90;;;;;;5092138;28;20051;-67
2021/08/22 12:11:44;;;;;;;2.72;1.55;;;20.90;99.90;;;;;;5084095;27;20052;-67
2021/08/22 12:14:15;;;;;;;2.30;1.92;;;21.00;99.90;;;;;;5084071;28;20064;-67
2021/08/22 12:16:56;;;;;;;2.28;1.48;;;21.00;99.90;;;;;;5086520;27;20063;-67
2021/08/22 12:19:27;;;;;;;2.08;1.88;;;21.20;99.90;;;;;;5086755;28;20375;-67
2021/08/22 12:21:54;;;;;;;3.13;1.77;;;21.40;99.90;;;;;;5087919;27;20044;-67
2021/08/22 12:24:25;;;;;;;4.00;1.63;;;21.60;99.90;;;;;;5087799;28;20051;-67
2021/08/22 12:26:53;;;;;;;2.47;1.77;;;21.80;99.90;;;;;;5087578;27;20074;-67
2021/08/22 12:29:36;;;;;;;3.58;1.52;;;22.00;99.90;;;;;;5093045;27;20085;-67
2021/08/22 12:32:17;;;;;;;2.15;1.20;;;22.20;99.90;;;;;;5100558;27;20040;-67
2021/08/22 12:34:43;;;;;;;1.88;1.20;;;22.50;99.90;;;;;;5090553;27;20078;-67
2021/08/22 12:37:21;;;;;;;3.33;1.20;;;22.70;99.90;;;;;;5101421;27;20130;-69
2021/08/22 12:39:56;;;;;;;2.17;1.05;;;22.70;99.90;;;;;;5098224;28;20404;-67
2021/08/22 12:42:22;;;;;;;2.13;1.33;;;22.70;99.90;;;;;;5095949;27;20363;-67
2021/08/22 12:44:48;;;;;;;15.82;1.40;;;22.60;99.90;;;;;;5102706;28;20181;-67
2021/08/22 12:47:14;;;;;;;3.22;1.52;;;22.50;99.90;;;;;;5102499;28;20040;-67
2021/08/22 12:49:39;;;;;;;3.28;1.80;;;22.40;99.90;;;;;;5100965;28;20104;-67